Terminal Aerodrome Forecast
Issued by NWS

Home | Current Version | Previous Version | Text Only | Print | Product List | Glossary On
Versions: 1 2 3 4 5 6 7 8 9 10 11 12 13
000
FTUS45 KSLC 251737
TAFEVW
TAF
KEVW 251737Z 2518/2618 09009KT P6SM SKC
     FM252100 35008KT P6SM SKC
     FM260300 08006KT P6SM SKC
     FM261700 14007KT P6SM SCT150=

USA.gov is the U.S. government's official web portal to all federal, state and local government web resources and services.